Time;durP1;ratioP1;P1;durP2;ratioP2;P2;SDS_P1;SDS_P2;PMS_P1;PMS_P2;Temp;Humidity;BMP_temperature;BMP_pressure;BME280_temperature;BME280_humidity;BME280_pressure;Samples;Min_cycle;Max_cycle;Signal;HPM_P1;HPM_P2
2022/08/02 00:00:20;;;;;;;0.82;0.30;;;12.70;99.90;;;;;;5084820;28;20050;-76
2022/08/02 00:02:46;;;;;;;0.30;0.20;;;12.80;99.90;;;;;;5056964;28;20119;-75
2022/08/02 00:05:13;;;;;;;0.13;0.10;;;12.80;99.90;;;;;;5069950;28;20052;-75
2022/08/02 00:07:39;;;;;;;0.40;0.20;;;12.70;99.90;;;;;;5069864;28;20510;-75
2022/08/02 00:10:06;;;;;;;0.10;0.10;;;12.60;99.90;;;;;;5086164;28;20130;-75
2022/08/02 00:12:31;;;;;;;0.28;0.22;;;12.70;99.90;;;;;;5086089;28;20044;-75
2022/08/02 00:14:57;;;;;;;0.10;0.10;;;12.70;99.90;;;;;;5074755;28;20032;-76
2022/08/02 00:17:23;;;;;;;0.40;0.22;;;12.70;99.90;;;;;;5070735;28;20569;-75
2022/08/02 00:19:49;;;;;;;0.52;0.20;;;12.60;99.90;;;;;;5078871;28;20067;-75
2022/08/02 00:22:15;;;;;;;0.15;0.13;;;12.70;99.90;;;;;;5070385;28;20051;-75
2022/08/02 00:24:40;;;;;;;0.10;0.10;;;12.80;99.90;;;;;;5080356;28;20044;-76
2022/08/02 00:27:07;;;;;;;0.10;0.10;;;12.70;99.90;;;;;;5073375;28;20041;-76
2022/08/02 00:29:33;;;;;;;;;;;12.80;99.90;;;;;;5071496;28;20075;-76
2022/08/02 00:31:59;;;;;;;0.32;0.20;;;12.80;99.90;;;;;;5075880;28;19921;-76
2022/08/02 00:34:24;;;;;;;0.40;0.25;;;12.80;99.90;;;;;;5072917;28;20347;-76
2022/08/02 00:36:50;;;;;;;0.25;0.20;;;12.80;99.90;;;;;;5052679;28;20044;-75
2022/08/02 00:39:16;;;;;;;0.45;0.20;;;12.80;99.90;;;;;;5084113;28;20449;-76
2022/08/02 00:41:47;;;;;;;0.10;0.10;;;12.80;99.90;;;;;;5080560;28;20044;-76
2022/08/02 00:44:14;;;;;;;0.05;0.05;;;12.80;99.90;;;;;;5073088;28;20090;-76
2022/08/02 00:46:39;;;;;;;0.47;0.17;;;12.70;99.90;;;;;;5081510;28;20044;-76
2022/08/02 00:49:05;;;;;;;0.22;0.20;;;12.80;99.90;;;;;;5076042;28;20054;-75
2022/08/02 00:51:31;;;;;;;0.68;0.17;;;12.80;99.90;;;;;;5059364;28;20048;-75
2022/08/02 00:53:56;;;;;;;0.20;0.10;;;12.70;99.90;;;;;;5080183;28;20036;-75
2022/08/02 00:56:22;;;;;;;0.10;0.10;;;12.70;99.90;;;;;;5079679;28;20052;-76
2022/08/02 00:58:48;;;;;;;0.55;0.20;;;12.80;99.90;;;;;;5081548;28;20042;-75
2022/08/02 01:01:14;;;;;;;0.50;0.20;;;12.80;99.90;;;;;;5070582;28;20127;-75
2022/08/02 01:03:40;;;;;;;0.30;0.20;;;12.80;99.90;;;;;;5074119;28;20040;-75
2022/08/02 01:06:05;;;;;;;0.60;0.20;;;12.80;99.90;;;;;;5071779;28;20036;-75
2022/08/02 01:08:31;;;;;;;0.43;0.20;;;12.80;99.90;;;;;;5064452;28;20036;-75
2022/08/02 01:10:57;;;;;;;0.45;0.20;;;12.60;99.90;;;;;;5072437;28;20039;-75
2022/08/02 01:13:23;;;;;;;0.30;0.20;;;12.70;99.90;;;;;;5075812;28;20533;-75
2022/08/02 01:15:52;;;;;;;;;;;12.60;99.90;;;;;;5086657;28;20128;-75
2022/08/02 01:18:29;;;;;;;0.20;0.17;;;12.60;99.90;;;;;;5081734;28;19916;-75
2022/08/02 01:21:21;;;;;;;0.32;0.13;;;12.60;99.90;;;;;;5071530;28;20094;-76
2022/08/02 01:24:11;;;;;;;0.40;0.20;;;12.60;99.90;;;;;;5076410;28;20047;-75
2022/08/02 01:26:37;;;;;;;0.55;0.28;;;12.70;99.90;;;;;;5071806;28;20041;-75
2022/08/02 01:29:08;;;;;;;;;;;12.80;99.90;;;;;;5059150;28;20037;-75
2022/08/02 01:31:56;;;;;;;0.65;0.40;;;12.70;99.90;;;;;;5080234;28;20047;-76
2022/08/02 01:34:34;;;;;;;0.20;0.20;;;12.70;99.90;;;;;;5080073;28;20036;-76
2022/08/02 01:37:06;;;;;;;0.45;0.30;;;12.80;99.90;;;;;;5085406;28;20122;-75
2022/08/02 01:39:34;;;;;;;0.52;0.25;;;12.80;99.90;;;;;;5077755;28;20037;-75
2022/08/02 01:42:02;;;;;;;0.80;0.20;;;12.70;99.90;;;;;;5084421;28;20135;-75
2022/08/02 01:44:32;;;;;;;0.30;0.20;;;12.80;99.90;;;;;;5079766;28;20041;-75
2022/08/02 01:47:02;;;;;;;0.52;0.32;;;12.80;99.90;;;;;;5085043;28;20051;-76
2022/08/02 01:49:30;;;;;;;0.50;0.30;;;12.70;99.90;;;;;;5063547;28;20064;-75
2022/08/02 01:54:43;;;;;;;0.88;0.30;;;12.70;99.90;;;;;;5076513;28;20502;-76
2022/08/02 01:57:10;;;;;;;1.90;0.50;;;12.70;99.90;;;;;;5078802;28;20420;-76
2022/08/02 01:59:38;;;;;;;0.65;0.30;;;12.70;99.90;;;;;;5070394;28;20043;-75
2022/08/02 02:02:07;;;;;;;0.20;0.20;;;12.80;99.90;;;;;;5083165;28;20080;-75
2022/08/02 02:04:36;;;;;;;0.85;0.40;;;12.70;99.90;;;;;;5072293;28;20040;-75
2022/08/02 02:07:03;;;;;;;0.22;0.20;;;12.80;99.90;;;;;;5085045;28;20051;-75
2022/08/02 02:09:34;;;;;;;0.95;0.30;;;12.70;99.90;;;;;;5081325;28;20864;-75
2022/08/02 02:12:00;;;;;;;1.10;0.38;;;12.70;99.90;;;;;;5083350;28;20564;-75
2022/08/02 02:14:28;;;;;;;0.65;0.22;;;12.80;99.90;;;;;;5063615;28;20045;-75
2022/08/02 02:16:55;;;;;;;0.47;0.40;;;12.80;99.90;;;;;;5075224;28;20044;-75
2022/08/02 02:19:23;;;;;;;0.60;0.20;;;12.80;99.90;;;;;;5078721;28;20064;-75
2022/08/02 02:21:49;;;;;;;1.90;0.40;;;12.80;99.90;;;;;;5071054;28;20051;-75
2022/08/02 02:24:14;;;;;;;1.17;0.43;;;12.80;99.90;;;;;;5073648;28;20443;-75
2022/08/02 02:26:42;;;;;;;1.33;0.55;;;12.90;99.90;;;;;;5075185;28;20081;-75
2022/08/02 02:29:09;;;;;;;0.63;0.50;;;12.80;99.90;;;;;;5084694;28;20101;-75
2022/08/02 02:31:38;;;;;;;1.23;0.55;;;12.90;99.90;;;;;;5076532;28;20430;-75
2022/08/02 02:34:09;;;;;;;1.73;0.65;;;12.90;99.90;;;;;;5060114;28;20037;-75
2022/08/02 02:36:39;;;;;;;1.58;0.50;;;12.80;99.90;;;;;;5075315;28;20040;-75
2022/08/02 02:39:06;;;;;;;1.38;0.30;;;12.90;99.90;;;;;;5075022;28;20043;-75
2022/08/02 02:41:32;;;;;;;1.55;0.50;;;12.90;99.90;;;;;;5069075;28;20063;-75
2022/08/02 02:44:01;;;;;;;0.90;0.50;;;12.80;99.90;;;;;;5087234;28;20081;-75
2022/08/02 02:46:29;;;;;;;0.70;0.50;;;12.80;99.90;;;;;;5079296;28;20472;-75
2022/08/02 02:48:56;;;;;;;0.82;0.40;;;12.80;99.90;;;;;;5072181;28;20082;-75
2022/08/02 02:51:22;;;;;;;;;;;12.80;99.90;;;;;;5072047;28;20105;-76
2022/08/02 02:53:50;;;;;;;0.80;0.50;;;12.80;99.90;;;;;;5080087;28;19928;-75
2022/08/02 02:56:17;;;;;;;0.57;0.43;;;12.80;99.90;;;;;;5069488;28;20559;-75
2022/08/02 02:58:44;;;;;;;1.23;0.60;;;12.90;99.90;;;;;;5071953;28;20040;-75
2022/08/02 03:04:03;;;;;;;1.05;0.50;;;12.90;99.90;;;;;;5078864;28;20096;-75
2022/08/02 03:06:29;;;;;;;0.70;0.38;;;12.90;99.90;;;;;;5084771;28;20048;-75
2022/08/02 03:08:56;;;;;;;1.00;0.50;;;12.80;99.90;;;;;;5059364;28;20040;-75
2022/08/02 03:11:22;;;;;;;;;;;12.80;99.90;;;;;;5055054;28;20042;-75
2022/08/02 03:13:49;;;;;;;1.02;0.38;;;12.80;99.90;;;;;;5053460;28;20317;-76
2022/08/02 03:16:14;;;;;;;0.30;0.30;;;12.80;99.90;;;;;;5082520;28;20050;-75
2022/08/02 03:18:42;;;;;;;1.40;0.40;;;12.80;99.90;;;;;;5084526;28;20040;-75
2022/08/02 03:21:11;;;;;;;0.32;0.30;;;12.80;99.90;;;;;;5073592;28;20109;-75
2022/08/02 03:23:39;;;;;;;0.50;0.20;;;12.70;99.90;;;;;;5072241;28;20110;-75
2022/08/02 03:26:05;;;;;;;0.95;0.47;;;12.80;99.90;;;;;;5084867;28;20356;-76
2022/08/02 03:28:31;;;;;;;0.50;0.38;;;12.80;99.90;;;;;;5052217;28;20076;-75
2022/08/02 03:30:57;;;;;;;0.68;0.40;;;12.80;99.90;;;;;;5084257;28;20148;-75
2022/08/02 03:33:25;;;;;;;0.65;0.40;;;12.80;99.90;;;;;;5072521;28;20130;-75
2022/08/02 03:36:00;;;;;;;0.40;0.28;;;12.90;99.90;;;;;;5076068;28;20037;-75
2022/08/02 03:38:27;;;;;;;0.57;0.40;;;12.90;99.90;;;;;;5078461;28;20039;-75
2022/08/02 03:40:54;;;;;;;0.30;0.25;;;12.90;99.90;;;;;;5075802;28;20036;-75
2022/08/02 03:43:22;;;;;;;0.50;0.20;;;12.80;99.90;;;;;;5082583;28;20044;-75
2022/08/02 03:45:48;;;;;;;0.85;0.40;;;12.80;99.90;;;;;;5080539;28;20595;-75
2022/08/02 03:48:14;;;;;;;;;;;12.90;99.90;;;;;;5082704;28;20036;-75
2022/08/02 03:50:41;;;;;;;1.02;0.50;;;13.00;99.90;;;;;;5063109;28;19920;-76
2022/08/02 03:53:08;;;;;;;0.98;0.50;;;13.00;99.90;;;;;;5087730;28;20048;-75
2022/08/02 03:55:34;;;;;;;0.98;0.50;;;12.90;99.90;;;;;;5077829;28;20043;-76
2022/08/02 03:58:00;;;;;;;;;;;13.00;99.90;;;;;;5059208;28;20049;-75
2022/08/02 04:00:26;;;;;;;1.60;0.47;;;13.00;99.90;;;;;;5057431;28;19925;-76
2022/08/02 04:02:52;;;;;;;2.00;0.60;;;13.00;99.90;;;;;;5061245;28;20040;-75
2022/08/02 04:05:18;;;;;;;1.48;0.60;;;12.90;99.90;;;;;;5058261;28;20048;-75
2022/08/02 04:07:44;;;;;;;1.67;0.70;;;13.00;99.90;;;;;;5069209;28;20139;-76
2022/08/02 04:10:11;;;;;;;0.77;0.60;;;13.10;99.90;;;;;;5080198;28;20367;-75
2022/08/02 04:12:37;;;;;;;1.00;0.60;;;13.00;99.90;;;;;;5070029;28;20132;-76
2022/08/02 04:15:04;;;;;;;;;;;13.10;99.90;;;;;;5072778;28;20043;-76
2022/08/02 04:17:32;;;;;;;1.17;0.60;;;13.00;99.90;;;;;;5052687;28;20272;-76
2022/08/02 04:20:03;;;;;;;0.98;0.50;;;13.10;99.90;;;;;;5070657;28;20048;-75
2022/08/02 04:22:36;;;;;;;1.25;0.60;;;13.10;99.90;;;;;;5055367;28;20048;-75
2022/08/02 04:25:05;;;;;;;1.08;0.60;;;13.10;99.90;;;;;;5071888;28;20047;-75
2022/08/02 04:27:35;;;;;;;1.33;0.65;;;13.10;99.90;;;;;;5058145;28;20124;-75
2022/08/02 04:30:01;;;;;;;0.45;0.40;;;13.10;99.90;;;;;;5056601;28;20048;-75
2022/08/02 04:32:27;;;;;;;;;;;13.10;99.90;;;;;;5061298;28;20114;-76
2022/08/02 04:34:53;;;;;;;0.95;0.63;;;13.20;99.90;;;;;;5070192;28;19963;-76
2022/08/02 04:37:19;;;;;;;1.30;0.88;;;13.20;99.90;;;;;;5062707;28;20097;-75
2022/08/02 04:39:45;;;;;;;0.68;0.40;;;13.20;99.90;;;;;;5060778;28;20044;-75
2022/08/02 04:42:23;;;;;;;1.92;0.57;;;13.20;99.90;;;;;;5058367;28;20472;-75
2022/08/02 04:44:49;;;;;;;1.20;0.50;;;13.20;99.90;;;;;;5063105;28;20114;-75
2022/08/02 04:47:15;;;;;;;1.63;0.60;;;13.20;99.90;;;;;;5076353;28;20036;-75
2022/08/02 04:49:41;;;;;;;1.08;0.47;;;13.20;99.90;;;;;;5055848;28;20475;-75
2022/08/02 04:52:07;;;;;;;0.98;0.52;;;13.30;99.90;;;;;;5036399;28;20462;-75
2022/08/02 04:54:33;;;;;;;0.95;0.52;;;13.20;99.90;;;;;;5073693;28;20049;-75
2022/08/02 04:56:58;;;;;;;0.82;0.50;;;13.20;99.90;;;;;;5080428;28;20037;-83
2022/08/02 04:59:24;;;;;;;1.55;0.60;;;13.30;99.90;;;;;;5049679;28;20090;-76
2022/08/02 05:01:50;;;;;;;1.55;0.60;;;13.30;99.90;;;;;;5068366;28;20467;-76
2022/08/02 05:04:15;;;;;;;0.80;0.65;;;13.40;99.90;;;;;;5087054;28;20035;-76
2022/08/02 05:06:41;;;;;;;0.77;0.45;;;13.40;99.90;;;;;;5083595;28;20044;-75
2022/08/02 05:09:07;;;;;;;0.80;0.50;;;13.50;99.90;;;;;;5081731;28;20041;-75
2022/08/02 05:11:32;;;;;;;0.40;0.40;;;13.60;99.90;;;;;;5074577;28;20048;-75
2022/08/02 05:13:58;;;;;;;1.15;0.60;;;13.70;99.90;;;;;;5063713;28;20037;-75
2022/08/02 05:16:25;;;;;;;0.88;0.40;;;13.70;99.90;;;;;;5075054;28;20740;-75
2022/08/02 05:18:51;;;;;;;0.30;0.30;;;13.80;99.90;;;;;;5057882;28;20527;-75
2022/08/02 05:21:16;;;;;;;1.13;0.63;;;13.80;99.90;;;;;;5076155;28;20067;-76
2022/08/02 05:23:42;;;;;;;0.98;0.55;;;13.90;99.90;;;;;;5062218;28;20075;-76
2022/08/02 05:26:08;;;;;;;0.70;0.57;;;14.00;99.90;;;;;;5058917;28;20028;-76
2022/08/02 05:28:34;;;;;;;1.50;0.70;;;14.00;99.90;;;;;;5046837;28;20122;-75
2022/08/02 05:30:59;;;;;;;1.35;0.70;;;14.10;99.90;;;;;;5072656;28;20540;-75
2022/08/02 05:33:25;;;;;;;1.45;0.63;;;14.20;99.90;;;;;;5063194;28;20522;-80
2022/08/02 05:35:51;;;;;;;1.88;0.70;;;14.20;99.90;;;;;;5038766;28;20037;-75
2022/08/02 05:38:16;;;;;;;1.35;0.80;;;14.30;99.90;;;;;;5069806;28;20036;-77
2022/08/02 05:40:42;;;;;;;1.33;0.70;;;14.40;99.90;;;;;;5070070;28;20073;-75
2022/08/02 05:43:15;;;;;;;0.88;0.60;;;14.50;99.90;;;;;;5069608;28;20055;-75
2022/08/02 05:45:41;;;;;;;0.77;0.57;;;14.50;99.90;;;;;;5080892;28;20080;-77
2022/08/02 05:48:07;;;;;;;;;;;14.60;99.90;;;;;;5063032;28;20048;-75
2022/08/02 05:50:38;;;;;;;1.60;0.50;;;14.60;99.90;;;;;;5058794;28;19924;-75
2022/08/02 05:53:18;;;;;;;0.70;0.40;;;14.70;99.90;;;;;;5074604;28;20048;-75
2022/08/02 05:55:56;;;;;;;0.75;0.57;;;14.80;99.90;;;;;;5073149;28;20406;-74
2022/08/02 05:58:42;;;;;;;0.93;0.40;;;14.80;99.90;;;;;;5073606;28;20462;-75
2022/08/02 06:01:12;;;;;;;1.33;0.60;;;14.80;99.90;;;;;;5073203;28;20044;-72
2022/08/02 06:03:45;;;;;;;0.90;0.40;;;14.90;99.90;;;;;;5075185;28;20859;-75
2022/08/02 06:06:13;;;;;;;0.93;0.57;;;15.10;99.90;;;;;;5072325;28;20341;-75
2022/08/02 06:08:44;;;;;;;2.20;0.50;;;15.20;99.90;;;;;;5080121;28;20047;-75
2022/08/02 06:11:14;;;;;;;2.40;0.75;;;15.30;99.90;;;;;;5083440;28;20138;-75
2022/08/02 06:13:45;;;;;;;1.17;0.55;;;15.40;99.90;;;;;;5080094;28;20029;-75
2022/08/02 06:16:11;;;;;;;1.08;0.47;;;15.50;99.90;;;;;;5057911;28;20063;-75
2022/08/02 06:18:39;;;;;;;1.45;0.50;;;15.70;99.90;;;;;;5082583;28;20075;-75
2022/08/02 06:21:07;;;;;;;0.25;0.25;;;15.70;99.90;;;;;;5076948;28;20055;-75
2022/08/02 06:23:38;;;;;;;1.15;0.63;;;16.00;99.90;;;;;;5076942;28;20117;-75
2022/08/02 06:26:06;;;;;;;1.02;0.50;;;16.10;99.90;;;;;;5072336;28;20451;-75
2022/08/02 06:28:36;;;;;;;0.52;0.50;;;16.20;99.90;;;;;;5072570;28;20101;-75
2022/08/02 06:31:04;;;;;;;0.88;0.60;;;16.50;99.90;;;;;;5065099;28;20491;-75
2022/08/02 06:33:30;;;;;;;1.65;0.77;;;16.70;99.90;;;;;;5071400;28;20037;-75
2022/08/02 06:36:01;;;;;;;1.35;0.80;;;16.90;99.90;;;;;;5056468;28;20480;-75
2022/08/02 06:38:32;;;;;;;1.70;0.70;;;17.20;99.90;;;;;;5075740;28;20087;-74
2022/08/02 06:41:07;;;;;;;1.33;0.70;;;17.40;99.90;;;;;;5053199;28;20085;-74
2022/08/02 06:44:13;;;;;;;2.13;0.65;;;17.50;99.90;;;;;;5079515;28;20047;-74
2022/08/02 06:46:39;;;;;;;1.35;0.60;;;17.50;99.90;;;;;;5048742;28;20056;-74
2022/08/02 06:49:05;;;;;;;1.75;0.52;;;17.50;99.90;;;;;;5079165;28;20102;-76
2022/08/02 06:51:32;;;;;;;1.50;0.68;;;17.60;99.90;;;;;;5073905;28;20087;-76
2022/08/02 06:53:57;;;;;;;1.00;0.70;;;17.60;99.90;;;;;;5063527;28;20093;-76
2022/08/02 06:56:23;;;;;;;0.95;0.50;;;17.60;99.90;;;;;;5075813;28;20032;-76
2022/08/02 06:58:49;;;;;;;1.00;0.52;;;17.70;99.90;;;;;;5073842;28;20032;-76
2022/08/02 07:01:18;;;;;;;0.85;0.50;;;17.90;99.90;;;;;;5055307;28;20488;-75
2022/08/02 07:03:44;;;;;;;1.00;0.50;;;18.00;99.90;;;;;;5058661;28;20089;-76
2022/08/02 07:06:09;;;;;;;;;;;18.10;99.90;;;;;;5076322;28;20045;-75
2022/08/02 07:08:38;;;;;;;0.73;0.50;;;18.30;99.90;;;;;;5073793;28;19931;-75
2022/08/02 07:11:05;;;;;;;1.35;0.73;;;18.30;99.90;;;;;;5081693;28;20040;-75
2022/08/02 07:13:31;;;;;;;1.60;0.80;;;18.40;99.90;;;;;;5071819;28;20068;-75
2022/08/02 07:15:57;;;;;;;2.70;0.77;;;18.50;99.90;;;;;;5075849;28;20452;-75
2022/08/02 07:18:23;;;;;;;0.68;0.55;;;18.60;99.90;;;;;;5072917;28;20032;-75
2022/08/02 07:20:49;;;;;;;0.68;0.43;;;18.70;99.90;;;;;;5055795;28;20471;-75
2022/08/02 07:23:15;;;;;;;2.92;0.52;;;18.70;99.90;;;;;;5071118;28;20095;-75
2022/08/02 07:25:41;;;;;;;;;;;18.80;99.90;;;;;;5075854;28;20033;-75
2022/08/02 07:28:09;;;;;;;1.65;0.75;;;18.80;99.90;;;;;;5065846;28;19920;-75
2022/08/02 07:30:35;;;;;;;0.63;0.40;;;19.00;99.90;;;;;;5073476;28;20138;-75
2022/08/02 07:33:01;;;;;;;;;;;19.20;99.90;;;;;;5070927;28;20116;-76
2022/08/02 07:35:27;;;;;;;0.90;0.52;;;19.30;99.90;;;;;;5076671;28;19930;-76
2022/08/02 07:37:53;;;;;;;1.48;0.68;;;19.60;99.90;;;;;;5079075;28;20055;-75
2022/08/02 07:40:19;;;;;;;;;;;19.70;99.90;;;;;;5079689;28;20044;-76
2022/08/02 07:42:46;;;;;;;1.20;0.50;;;19.80;99.90;;;;;;5080282;28;20340;-76
2022/08/02 07:45:12;;;;;;;0.80;0.50;;;20.00;99.90;;;;;;5063010;28;20041;-75
2022/08/02 07:47:40;;;;;;;1.48;0.50;;;20.20;99.90;;;;;;5053719;28;20429;-75
2022/08/02 07:50:07;;;;;;;1.27;0.57;;;20.30;99.90;;;;;;5054175;28;20923;-75
2022/08/02 07:52:32;;;;;;;2.00;0.60;;;20.50;99.90;;;;;;5074164;28;20047;-75
2022/08/02 07:54:58;;;;;;;;;;;20.60;99.90;;;;;;5064167;28;20055;-75
2022/08/02 07:57:24;;;;;;;1.38;0.50;;;21.00;99.90;;;;;;5074831;28;19989;-75
2022/08/02 07:59:50;;;;;;;;;;;21.30;99.90;;;;;;5075862;28;20044;-75
2022/08/02 08:02:16;;;;;;;1.98;0.52;;;21.50;98.80;;;;;;5087210;28;20425;-75
2022/08/02 08:04:42;;;;;;;1.40;0.60;;;21.60;98.40;;;;;;5076832;28;20040;-75
2022/08/02 08:07:10;;;;;;;;;;;21.80;98.10;;;;;;5072274;28;20376;-75
2022/08/02 08:09:40;;;;;;;1.45;0.52;;;21.70;96.70;;;;;;5070289;28;19935;-75
2022/08/02 08:12:08;;;;;;;0.80;0.50;;;21.80;96.70;;;;;;5073875;28;20553;-75
2022/08/02 08:14:34;;;;;;;0.40;0.30;;;21.90;96.50;;;;;;5072153;28;20483;-74
2022/08/02 08:16:59;;;;;;;0.35;0.30;;;22.00;95.60;;;;;;5077585;28;20051;-73
2022/08/02 08:19:25;;;;;;;1.13;0.50;;;22.10;95.70;;;;;;5064270;28;20048;-74
2022/08/02 08:21:51;;;;;;;;;;;22.20;96.20;;;;;;5072482;28;20075;-74
2022/08/02 08:24:17;;;;;;;0.70;0.43;;;22.40;95.20;;;;;;5074863;28;19925;-74
2022/08/02 08:26:42;;;;;;;;;;;22.60;95.90;;;;;;5072390;28;20474;-74
2022/08/02 08:29:08;;;;;;;0.73;0.47;;;22.70;95.00;;;;;;5080444;28;19923;-74
2022/08/02 08:31:34;;;;;;;0.93;0.32;;;22.80;94.50;;;;;;5080227;28;20088;-73
2022/08/02 08:34:00;;;;;;;1.30;0.60;;;22.80;94.30;;;;;;5071858;28;20055;-74
2022/08/02 08:36:26;;;;;;;0.25;0.22;;;22.90;94.30;;;;;;5074419;28;20066;-74
2022/08/02 08:38:52;;;;;;;0.98;0.30;;;23.00;93.90;;;;;;5071899;28;20033;-73
2022/08/02 08:41:19;;;;;;;0.75;0.30;;;23.00;94.10;;;;;;5068232;28;20440;-73
2022/08/02 08:43:46;;;;;;;0.73;0.38;;;23.00;93.40;;;;;;5081395;28;20055;-73
2022/08/02 08:46:23;;;;;;;0.50;0.25;;;23.00;93.00;;;;;;5071032;28;20051;-73
2022/08/02 08:48:52;;;;;;;0.50;0.30;;;23.20;92.80;;;;;;5074959;28;20047;-73
2022/08/02 08:51:21;;;;;;;0.30;0.25;;;23.20;93.10;;;;;;5071390;28;20057;-74
2022/08/02 08:53:48;;;;;;;0.35;0.30;;;23.20;92.70;;;;;;5073169;28;20059;-74
2022/08/02 08:56:15;;;;;;;1.05;0.40;;;23.40;93.30;;;;;;5085692;28;20036;-74
2022/08/02 08:58:42;;;;;;;0.77;0.30;;;23.40;92.60;;;;;;5076497;28;20769;-74
2022/08/02 09:01:09;;;;;;;0.40;0.20;;;23.50;93.10;;;;;;5071093;28;20033;-73
2022/08/02 09:03:35;;;;;;;0.55;0.22;;;23.90;93.90;;;;;;5071230;28;20776;-74
2022/08/02 09:06:02;;;;;;;0.88;0.32;;;24.00;92.10;;;;;;5083056;28;20123;-74
2022/08/02 09:08:27;;;;;;;0.70;0.30;;;24.10;92.40;;;;;;5075783;28;20226;-73
2022/08/02 09:10:54;;;;;;;0.40;0.30;;;24.20;93.20;;;;;;5072679;28;20118;-74
2022/08/02 09:13:22;;;;;;;0.63;0.30;;;24.30;92.40;;;;;;5035337;28;20077;-74
2022/08/02 09:16:00;;;;;;;1.20;0.40;;;24.50;92.70;;;;;;5081955;28;20482;-74
2022/08/02 09:18:45;;;;;;;1.00;0.35;;;24.40;91.90;;;;;;5067733;28;20037;-74
2022/08/02 09:21:12;;;;;;;1.60;0.55;;;24.40;91.90;;;;;;5061866;28;20176;-73
2022/08/02 09:23:39;;;;;;;0.38;0.30;;;24.50;92.10;;;;;;5068189;28;20043;-74
2022/08/02 09:26:08;;;;;;;0.80;0.50;;;24.70;92.10;;;;;;5053662;28;20131;-73
2022/08/02 09:28:36;;;;;;;0.65;0.30;;;24.70;92.10;;;;;;5056842;28;20162;-74
2022/08/02 09:31:17;;;;;;;0.57;0.40;;;24.90;92.20;;;;;;5073611;28;20137;-72
2022/08/02 09:33:48;;;;;;;0.88;0.40;;;25.10;92.20;;;;;;5085470;28;20470;-72
2022/08/02 09:36:16;;;;;;;0.50;0.40;;;25.30;92.40;;;;;;5073349;28;20052;-72
2022/08/02 09:39:02;;;;;;;0.63;0.40;;;25.50;92.20;;;;;;5074651;28;20029;-72
2022/08/02 09:41:34;;;;;;;1.13;0.40;;;25.60;92.10;;;;;;5074142;28;20110;-72
2022/08/02 09:44:02;;;;;;;0.75;0.35;;;25.50;91.70;;;;;;5056015;28;20052;-71
2022/08/02 09:46:29;;;;;;;1.20;0.50;;;25.50;91.60;;;;;;5070890;28;20233;-71
2022/08/02 09:48:57;;;;;;;1.20;0.50;;;25.40;91.60;;;;;;5075077;28;20483;-72
2022/08/02 09:51:24;;;;;;;0.38;0.20;;;25.50;92.40;;;;;;5072219;28;20479;-72
2022/08/02 09:53:52;;;;;;;1.35;0.45;;;25.40;92.10;;;;;;5056815;28;20043;-72
2022/08/02 09:56:19;;;;;;;0.60;0.55;;;25.40;92.50;;;;;;5071626;28;20047;-73
2022/08/02 09:58:45;;;;;;;0.40;0.40;;;25.40;92.60;;;;;;5072191;28;20468;-72
2022/08/02 10:01:11;;;;;;;1.50;0.40;;;25.60;92.80;;;;;;5073372;28;20044;-72
2022/08/02 10:03:51;;;;;;;1.15;0.40;;;25.60;92.50;;;;;;5071631;28;20083;-72
2022/08/02 10:06:17;;;;;;;1.63;0.70;;;25.70;92.30;;;;;;5073220;28;20111;-72
2022/08/02 10:08:43;;;;;;;0.70;0.50;;;25.60;92.20;;;;;;5076256;28;20470;-73
2022/08/02 10:11:09;;;;;;;1.00;0.50;;;25.90;92.40;;;;;;5072549;28;20039;-73
2022/08/02 10:13:35;;;;;;;0.68;0.60;;;26.00;92.40;;;;;;5071043;28;20050;-73
2022/08/02 10:16:03;;;;;;;0.60;0.50;;;26.10;92.50;;;;;;5070916;28;20079;-73
2022/08/02 10:18:29;;;;;;;0.50;0.40;;;25.90;92.80;;;;;;5053214;28;20043;-73
2022/08/02 10:20:56;;;;;;;0.65;0.40;;;25.80;92.80;;;;;;5062886;28;20037;-73
2022/08/02 10:23:25;;;;;;;0.60;0.50;;;25.70;93.00;;;;;;5088113;28;20048;-74
2022/08/02 10:25:53;;;;;;;0.63;0.45;;;25.80;93.50;;;;;;5074676;28;20049;-74
2022/08/02 10:28:29;;;;;;;0.75;0.52;;;25.90;93.60;;;;;;5079548;28;20047;-74
2022/08/02 10:30:55;;;;;;;;;;;26.00;93.40;;;;;;5064456;28;20054;-74
2022/08/02 10:33:25;;;;;;;0.90;0.60;;;26.20;93.50;;;;;;5073946;28;20012;-74
2022/08/02 10:35:53;;;;;;;1.73;0.80;;;26.30;93.40;;;;;;5057146;28;20048;-73
2022/08/02 10:38:19;;;;;;;0.65;0.50;;;26.40;93.80;;;;;;5078637;28;20079;-73
2022/08/02 10:40:46;;;;;;;1.10;0.60;;;26.40;93.40;;;;;;5077645;28;20072;-73
2022/08/02 10:43:35;;;;;;;1.67;0.73;;;26.40;93.70;;;;;;5077063;28;20048;-73
2022/08/02 10:46:25;;;;;;;1.40;0.77;;;26.40;93.90;;;;;;5072963;28;20054;-73
2022/08/02 10:49:29;;;;;;;1.48;0.70;;;26.30;94.10;;;;;;5068308;28;20040;-73
2022/08/02 10:52:04;;;;;;;0.80;0.60;;;26.50;93.80;;;;;;5066407;28;20044;-73
2022/08/02 10:54:30;;;;;;;1.20;0.70;;;26.70;94.30;;;;;;5076889;28;20100;-73
2022/08/02 10:56:57;;;;;;;1.73;0.90;;;26.80;93.60;;;;;;5072118;28;20043;-73
2022/08/02 10:59:35;;;;;;;2.90;0.80;;;27.10;93.70;;;;;;5080441;28;20491;-73
2022/08/02 11:02:04;;;;;;;1.65;0.88;;;27.20;93.40;;;;;;5076900;28;20555;-73
2022/08/02 11:04:35;;;;;;;1.63;0.88;;;27.40;93.40;;;;;;5072517;28;20807;-73
2022/08/02 11:07:13;;;;;;;1.20;0.75;;;27.40;93.30;;;;;;5057346;28;20085;-73
2022/08/02 11:09:44;;;;;;;1.80;1.02;;;27.20;93.10;;;;;;5072075;28;20143;-73
2022/08/02 11:12:12;;;;;;;2.17;0.90;;;26.70;92.60;;;;;;5071896;28;20055;-73
2022/08/02 11:14:40;;;;;;;1.52;0.90;;;26.30;92.90;;;;;;5069528;28;20032;-73
2022/08/02 11:17:14;;;;;;;3.10;1.00;;;26.10;93.40;;;;;;5069550;28;20119;-73
2022/08/02 11:20:11;;;;;;;1.63;0.90;;;26.00;93.80;;;;;;5071456;28;20047;-73
2022/08/02 11:22:37;;;;;;;3.05;1.52;;;25.90;93.60;;;;;;5078201;28;20045;-73
2022/08/02 11:25:21;;;;;;;2.20;1.00;;;25.70;93.60;;;;;;5069790;28;20056;-73
2022/08/02 11:28:06;;;;;;;1.00;0.80;;;25.60;93.90;;;;;;5048632;28;20040;-73
2022/08/02 11:30:32;;;;;;;1.80;0.70;;;25.60;94.20;;;;;;5069202;28;20040;-73
2022/08/02 11:32:59;;;;;;;0.93;0.80;;;25.70;94.80;;;;;;5071350;28;20114;-70
2022/08/02 11:35:38;;;;;;;0.98;0.70;;;25.80;94.40;;;;;;5070423;28;20040;-71
2022/08/02 11:38:18;;;;;;;1.27;0.80;;;26.10;94.60;;;;;;5055161;28;20507;-70
2022/08/02 11:40:45;;;;;;;1.58;0.90;;;26.20;94.80;;;;;;5054089;28;20140;-71
2022/08/02 11:43:29;;;;;;;1.30;0.82;;;26.40;94.80;;;;;;5083505;28;20048;-70
2022/08/02 11:45:56;;;;;;;0.90;0.80;;;26.50;94.50;;;;;;5070820;28;20059;-71
2022/08/02 11:48:32;;;;;;;0.82;0.70;;;26.40;94.30;;;;;;5054840;28;20036;-71
2022/08/02 11:51:03;;;;;;;1.25;0.80;;;26.40;94.60;;;;;;5069356;28;20056;-70
2022/08/02 11:53:40;;;;;;;2.53;1.13;;;26.30;93.90;;;;;;5070786;28;20082;-71
2022/08/02 11:56:05;;;;;;;2.05;1.00;;;26.00;94.10;;;;;;5070161;28;20105;-71
2022/08/02 11:58:34;;;;;;;1.10;0.90;;;26.00;94.20;;;;;;5072452;28;20127;-71
2022/08/02 12:01:00;;;;;;;1.38;0.98;;;26.20;94.30;;;;;;5075259;28;20131;-70
2022/08/02 12:03:26;;;;;;;1.45;0.93;;;26.20;94.00;;;;;;5070859;28;20051;-71
2022/08/02 12:05:52;;;;;;;1.35;1.00;;;26.20;94.30;;;;;;5053453;28;20040;-70
2022/08/02 12:08:21;;;;;;;1.38;0.90;;;26.10;94.40;;;;;;5053380;28;20052;-71
2022/08/02 12:10:49;;;;;;;1.75;1.00;;;26.10;94.80;;;;;;5070703;28;20036;-72
2022/08/02 12:13:15;;;;;;;2.38;1.10;;;25.90;94.70;;;;;;5053650;28;20048;-72
2022/08/02 12:15:44;;;;;;;1.83;0.90;;;25.90;95.00;;;;;;5071558;28;20048;-72
2022/08/02 12:21:25;;;;;;;1.08;0.80;;;25.60;95.50;;;;;;5067514;28;20052;-72
2022/08/02 12:23:51;;;;;;;1.60;1.00;;;25.60;95.90;;;;;;5070258;28;20044;-72
2022/08/02 12:26:17;;;;;;;2.67;1.30;;;25.60;95.50;;;;;;5070933;28;20064;-72
2022/08/02 12:28:43;;;;;;;2.50;1.65;;;25.30;95.50;;;;;;5074954;28;20361;-71
2022/08/02 12:31:12;;;;;;;1.30;0.90;;;25.30;95.80;;;;;;5071146;28;20075;-72
2022/08/02 12:33:53;;;;;;;2.15;1.30;;;25.30;96.00;;;;;;5055372;28;20079;-72
2022/08/02 12:36:28;;;;;;;1.60;1.30;;;25.30;96.20;;;;;;5080000;28;20156;-72
2022/08/02 12:38:56;;;;;;;1.48;1.30;;;25.20;96.60;;;;;;5063612;28;20043;-72
2022/08/02 12:41:23;;;;;;;1.35;1.00;;;25.20;96.80;;;;;;5071472;28;20067;-72
2022/08/02 12:43:49;;;;;;;1.10;1.00;;;25.20;97.20;;;;;;5072076;28;20056;-72
2022/08/02 12:46:20;;;;;;;1.85;1.23;;;25.10;97.90;;;;;;5056393;28;20040;-72
2022/08/02 12:48:46;;;;;;;1.90;1.20;;;24.90;97.20;;;;;;5068250;28;20123;-72
2022/08/02 12:51:22;;;;;;;1.10;0.90;;;24.80;97.10;;;;;;5068415;28;20054;-72
2022/08/02 12:53:49;;;;;;;1.00;0.90;;;24.70;97.50;;;;;;5034961;28;20078;-72
2022/08/02 12:56:32;;;;;;;1.60;1.23;;;24.70;97.30;;;;;;5067124;28;20598;-72
2022/08/02 12:58:58;;;;;;;1.17;0.90;;;24.60;98.10;;;;;;5077228;28;20459;-72
2022/08/02 13:01:26;;;;;;;1.40;1.27;;;24.50;99.30;;;;;;5075047;28;20040;-72
2022/08/02 13:03:52;;;;;;;2.15;1.40;;;24.40;99.30;;;;;;5073104;28;20059;-72
2022/08/02 13:06:19;;;;;;;1.23;1.13;;;24.30;99.90;;;;;;5077270;28;20480;-71
2022/08/02 13:08:45;;;;;;;1.45;1.10;;;24.30;99.80;;;;;;5075941;28;20376;-71